Fort Morgan, CO

12:09 PM MDT on July 23, 2014 (GMT -0600)
Fort Morgan (KFMM) Elev 4570 ft | 40.33 °N, 103.80 °W | Change Station

Current weather conditions updated 14 minutes ago

Mostly Cloudy
Mostly Cloudy
79 °F
Feels Like 79 °F
N
18
Wind Variable Wind from ESE
Gusts 22 mph

Today is forecast to be Warmer than yesterday.

Today
High -- | Low -- °F
--% Chance of Precip.
Yesterday
High -- | Low -- °F
Precip. -- in
5:44 AM 8:18 PM
Waning Crescent, 9% visible
Pressure 30.32 in
Visibility 10.0 miles
Clouds Mostly Cloudy 2300 ft
Dew Point 64 °F
Humidity 60%
Rainfall 0.00 in
Snow Depth Not available.
UV 6 out of 12
Pollen 7.00 out of 12
Air Quality Not available.
Flu Activity Not available.
METAR KFMM 231755Z AUTO 12016G19KT 10SM BKN023 26/18 A3032 RMK AO2 T02600178 10265 20190 PWINO

More Conditions Fewer Conditions

Pressure 30.32 in
Visibility 10.0 miles
Clouds Mostly Cloudy 2300 ft
Dew Point 64 °F
Humidity 60%
Rainfall 0.00 in
Snow Depth Not available.
UV 6 out of 12
Pollen 7.00 out of 12
Air Quality Not available.
Flu Activity Not available.
METAR KFMM 231755Z AUTO 12016G19KT 10SM BKN023 26/18 A3032 RMK AO2 T02600178 10265 20190 PWINO

More Conditions Fewer Conditions

10-Day Weather Forecast

Almanac

Astronomy

Jul. 23, 2014 Rise Set
Actual Time 5:44 AM MDT 8:18 PM MDT
Civil Twilight 5:13 AM MDT 8:49 PM MDT
Nautical Twilight 4:34 AM MDT 9:28 PM MDT
Astronomical Twilight 3:50 AM MDT 10:11 PM MDT
Moon 3:05 AM MDT 5:48 PM MDT
Length of Visible Light 15h 36m
Length of Day
14h 33m
Tomorrow will be 1m 44s shorter.
Waning Crescent, 9% of the Moon is Illuminated
Today
Waning Crescent
Jul 26
New
Aug 3
First Quarter
Aug 10
Full
Aug 17
Last Quarter

Today's Extremes

State Highs State Lows

Community

WunderPhotos

Upload Photos

1,736,692 photos uploaded!

Nearby

Snow Depth

Station Depth Elevation
Lake Irene 1 in 10700 ft
Never Summer 0 in 10280 ft
Rawah 14 in 9020 ft
Grizzly Peak 4 in 11100 ft
Michigan Creek 0 in 10600 ft

Earthquake Activity

City Distance Mag. Time & Date
No recent earthquake activity has been reported nearby.
Minimum magnitude displayed is 2.5.

Coastal Water Temperatures

Place Temperature
No Stations Reporting

Nearby Weather Stations

Station Location Temp. Heat Index Dew Point Humidity Wind Precip. Elev Updated Type
Fort Morgan, Fort Morgan, CO 82.2 °F 85 °F 68 °F 61% SSE  at  6.0 mph 0.00 in / hr 4327 ft 12:09 PM MDT Rapid Fire

Show More Stations Show Fewer Stations